Time;durP1;ratioP1;P1;durP2;ratioP2;P2;SDS_P1;SDS_P2;PMS_P1;PMS_P2;Temp;Humidity;BMP_temperature;BMP_pressure;BME280_temperature;BME280_humidity;BME280_pressure;Samples;Min_cycle;Max_cycle;Signal;HPM_P1;HPM_P2
2023/06/08 00:02:19;;;;;;;6.50;5.90;;;18.40;99.90;;;;;;5051524;28;20587;-67
2023/06/08 00:04:45;;;;;;;14.03;6.43;;;18.40;99.90;;;;;;5051979;28;20701;-67
2023/06/08 00:07:16;;;;;;;8.20;6.87;;;18.40;99.90;;;;;;5051958;28;20194;-67
2023/06/08 00:09:42;;;;;;;7.87;5.50;;;18.40;99.90;;;;;;5050623;28;20425;-67
2023/06/08 00:12:08;;;;;;;6.30;5.77;;;18.30;99.90;;;;;;5051498;28;20429;-67
2023/06/08 00:14:35;;;;;;;7.83;6.60;;;18.30;99.90;;;;;;5051630;28;20979;-67
2023/06/08 00:17:03;;;;;;;7.03;5.60;;;18.20;99.90;;;;;;5051706;28;20400;-67
2023/06/08 00:19:33;;;;;;;6.93;6.10;;;18.20;99.90;;;;;;5051754;28;20773;-67
2023/06/08 00:21:59;;;;;;;6.03;5.47;;;18.10;99.90;;;;;;5051412;28;20805;-67
2023/06/08 00:24:25;;;;;;;6.23;5.57;;;18.00;99.90;;;;;;5050361;28;20463;-67
2023/06/08 00:26:51;;;;;;;7.13;6.13;;;18.00;99.90;;;;;;5051763;28;20163;-68
2023/06/08 00:29:17;;;;;;;7.30;6.63;;;18.00;99.90;;;;;;5051661;28;20805;-67
2023/06/08 00:31:42;;;;;;;8.80;6.70;;;17.90;99.90;;;;;;5051344;28;20428;-68
2023/06/08 00:34:08;;;;;;;7.80;7.00;;;17.90;99.90;;;;;;5050348;28;20202;-68
2023/06/08 00:36:33;;;;;;;6.20;5.53;;;17.90;99.90;;;;;;5051368;28;20212;-68
2023/06/08 00:38:59;;;;;;;7.27;6.30;;;17.90;99.90;;;;;;5051133;28;20225;-67
2023/06/08 00:41:25;;;;;;;7.20;6.13;;;17.80;99.90;;;;;;5051104;28;20203;-68
2023/06/08 00:43:50;;;;;;;7.00;6.40;;;17.80;99.90;;;;;;5051295;28;20163;-68
2023/06/08 00:46:17;;;;;;;7.23;6.50;;;17.80;99.90;;;;;;5051568;28;20174;-68
2023/06/08 00:48:43;;;;;;;8.67;6.30;;;17.80;99.90;;;;;;5051433;28;20246;-67
2023/06/08 00:51:10;;;;;;;7.00;6.30;;;17.80;99.90;;;;;;5051190;28;20433;-68
2023/06/08 00:53:37;;;;;;;7.60;6.43;;;17.80;99.90;;;;;;5051345;28;20544;-67
2023/06/08 00:56:03;;;;;;;6.53;5.83;;;17.70;99.90;;;;;;5051484;28;20398;-68
2023/06/08 00:58:29;;;;;;;7.80;5.43;;;17.70;99.90;;;;;;5051382;28;20735;-68
2023/06/08 01:00:59;;;;;;;7.17;5.70;;;17.70;99.90;;;;;;5053257;28;20758;-67
2023/06/08 01:03:35;;;;;;;8.80;5.60;;;17.70;99.90;;;;;;5055257;28;20421;-68
2023/06/08 01:06:02;;;;;;;6.60;5.80;;;17.60;99.90;;;;;;5055180;28;20763;-68
2023/06/08 01:08:52;;;;;;;7.33;6.63;;;17.60;99.90;;;;;;5055089;28;20409;-68
2023/06/08 01:11:41;;;;;;;6.77;5.80;;;17.60;99.90;;;;;;5054774;28;20809;-68
2023/06/08 01:14:26;;;;;;;7.30;6.43;;;17.50;99.90;;;;;;5054733;28;20452;-68
2023/06/08 01:16:55;;;;;;;6.80;6.10;;;17.50;99.90;;;;;;5054970;28;20882;-68
2023/06/08 01:19:48;;;;;;;7.80;6.03;;;17.50;99.90;;;;;;5054973;28;20484;-68
2023/06/08 01:22:48;;;;;;;6.10;5.30;;;17.50;99.90;;;;;;5054629;28;20421;-68
2023/06/08 01:25:16;;;;;;;6.63;6.03;;;17.40;99.90;;;;;;5046345;28;20405;-68
2023/06/08 01:27:41;;;;;;;6.97;6.30;;;17.40;99.90;;;;;;5054725;28;20398;-68
2023/06/08 01:30:08;;;;;;;9.17;6.73;;;17.40;99.90;;;;;;5054873;28;20406;-67
2023/06/08 01:32:34;;;;;;;6.83;6.13;;;17.30;99.90;;;;;;5054347;28;20182;-67
2023/06/08 01:35:00;;;;;;;7.00;6.30;;;17.30;99.90;;;;;;5054564;28;20459;-67
2023/06/08 01:37:52;;;;;;;9.57;5.97;;;17.20;99.90;;;;;;5054580;28;20394;-68
2023/06/08 01:40:28;;;;;;;8.07;7.37;;;17.20;99.90;;;;;;5054608;28;20905;-68
2023/06/08 01:42:54;;;;;;;8.03;7.23;;;17.20;99.90;;;;;;5054433;28;20424;-68
2023/06/08 01:45:32;;;;;;;8.57;7.67;;;17.10;99.90;;;;;;5054496;28;20412;-68
2023/06/08 01:48:04;;;;;;;7.47;5.93;;;17.00;99.90;;;;;;5053187;28;20409;-67
2023/06/08 01:50:32;;;;;;;8.50;6.93;;;17.00;99.90;;;;;;5054078;28;20496;-67
2023/06/08 01:52:58;;;;;;;8.00;7.00;;;17.00;99.90;;;;;;5054161;28;20418;-67
2023/06/08 01:55:24;;;;;;;7.13;6.40;;;16.90;99.90;;;;;;5054217;28;20762;-68
2023/06/08 01:57:50;;;;;;;9.20;7.47;;;16.80;99.90;;;;;;5054103;28;20406;-67
2023/06/08 02:00:18;;;;;;;7.23;6.53;;;16.80;99.90;;;;;;5054196;28;20507;-67
2023/06/08 02:02:44;;;;;;;10.20;6.90;;;16.70;99.90;;;;;;5053782;28;20414;-67
2023/06/08 02:05:12;;;;;;;7.20;6.50;;;16.70;99.90;;;;;;5054013;28;20406;-67
2023/06/08 02:07:39;;;;;;;7.07;6.37;;;16.60;99.90;;;;;;5053975;28;20484;-67
2023/06/08 02:10:06;;;;;;;7.87;6.77;;;16.60;99.90;;;;;;5053977;28;20411;-67
2023/06/08 02:12:31;;;;;;;9.33;7.80;;;16.50;99.90;;;;;;5053486;28;20424;-68
2023/06/08 02:14:57;;;;;;;7.10;6.50;;;16.50;99.90;;;;;;5053742;28;20957;-68
2023/06/08 02:17:27;;;;;;;10.07;7.90;;;16.40;99.90;;;;;;5053741;28;20163;-67
2023/06/08 02:19:56;;;;;;;9.00;6.93;;;16.40;99.90;;;;;;5053703;28;20217;-67
2023/06/08 02:22:22;;;;;;;8.10;6.20;;;16.40;99.90;;;;;;5053425;28;20516;-67
2023/06/08 02:24:48;;;;;;;8.63;6.00;;;16.30;99.90;;;;;;5053630;28;20406;-67
2023/06/08 02:27:15;;;;;;;7.53;6.77;;;16.30;99.90;;;;;;5053623;28;20429;-68
2023/06/08 02:29:40;;;;;;;8.33;7.37;;;16.20;99.90;;;;;;5053560;28;20405;-68
2023/06/08 02:32:07;;;;;;;7.27;6.10;;;16.20;99.90;;;;;;5053250;28;20447;-67
2023/06/08 02:34:32;;;;;;;7.93;6.87;;;16.20;99.90;;;;;;5053382;28;20198;-68
2023/06/08 02:36:58;;;;;;;7.03;6.43;;;16.10;99.90;;;;;;5053514;28;20751;-67
2023/06/08 02:39:24;;;;;;;7.67;6.57;;;16.10;99.90;;;;;;5053507;28;20159;-68
2023/06/08 02:41:49;;;;;;;8.80;6.67;;;16.10;99.90;;;;;;5053015;28;20190;-67
2023/06/08 02:44:15;;;;;;;8.97;7.13;;;16.10;99.90;;;;;;5053389;28;20232;-67
2023/06/08 02:46:41;;;;;;;7.80;6.70;;;16.00;99.90;;;;;;5053291;28;20224;-67
2023/06/08 02:49:07;;;;;;;8.27;7.10;;;16.00;99.90;;;;;;5053258;28;20159;-67
2023/06/08 02:51:33;;;;;;;7.03;5.93;;;16.00;99.90;;;;;;5052932;28;20425;-68
2023/06/08 02:53:59;;;;;;;9.10;7.50;;;15.90;99.90;;;;;;5053076;28;20191;-67
2023/06/08 02:56:25;;;;;;;8.67;7.00;;;16.00;99.90;;;;;;5052988;28;20916;-67
2023/06/08 02:58:51;;;;;;;8.30;7.50;;;15.90;99.90;;;;;;5053020;28;20191;-67
2023/06/08 03:01:17;;;;;;;8.30;7.50;;;15.90;99.90;;;;;;5052610;28;20436;-68
2023/06/08 03:03:44;;;;;;;7.63;6.80;;;15.90;99.90;;;;;;5052914;28;20922;-67
2023/06/08 03:06:12;;;;;;;11.27;8.80;;;15.90;99.90;;;;;;5052869;28;20410;-67
2023/06/08 03:08:39;;;;;;;7.80;6.73;;;15.80;99.90;;;;;;5052924;28;20418;-67
2023/06/08 03:11:05;;;;;;;7.00;6.30;;;15.80;99.90;;;;;;5052522;28;20441;-67
2023/06/08 03:13:30;;;;;;;9.73;7.77;;;15.80;99.90;;;;;;5052453;28;20850;-67
2023/06/08 03:15:56;;;;;;;11.40;9.33;;;15.80;99.90;;;;;;5052663;28;20436;-67
2023/06/08 03:18:24;;;;;;;9.97;8.53;;;15.80;99.90;;;;;;5052800;28;20163;-67
2023/06/08 03:20:53;;;;;;;9.90;8.37;;;15.70;99.90;;;;;;5052297;28;20213;-67
2023/06/08 03:23:22;;;;;;;12.10;7.90;;;15.70;99.90;;;;;;5051976;28;20468;-68
2023/06/08 03:25:48;;;;;;;10.20;8.13;;;15.70;99.90;;;;;;5052388;28;20451;-67
2023/06/08 03:28:18;;;;;;;10.77;7.83;;;15.70;99.90;;;;;;5052056;28;20500;-68
2023/06/08 03:30:44;;;;;;;10.20;7.83;;;15.70;99.90;;;;;;5051537;28;20480;-68
2023/06/08 03:33:10;;;;;;;12.20;8.70;;;15.70;99.90;;;;;;5051673;28;20521;-67
2023/06/08 03:35:36;;;;;;;9.20;7.87;;;15.70;99.90;;;;;;5050671;28;20883;-67
2023/06/08 03:38:02;;;;;;;9.60;8.13;;;15.70;99.90;;;;;;5052039;28;20406;-67
2023/06/08 03:40:27;;;;;;;12.70;8.10;;;15.70;99.90;;;;;;5052014;28;20413;-67
2023/06/08 03:42:53;;;;;;;7.57;6.83;;;15.70;99.90;;;;;;5051835;28;20273;-68
2023/06/08 03:45:19;;;;;;;8.60;7.53;;;15.70;99.90;;;;;;5052312;28;20191;-68
2023/06/08 03:47:44;;;;;;;9.90;7.30;;;15.70;99.90;;;;;;5052168;28;20167;-68
2023/06/08 03:50:11;;;;;;;11.17;8.60;;;15.70;99.90;;;;;;5052137;28;20413;-67
2023/06/08 03:52:38;;;;;;;9.47;7.80;;;15.70;99.90;;;;;;5051762;28;20214;-67
2023/06/08 03:55:07;;;;;;;9.97;7.40;;;15.80;99.90;;;;;;5051970;28;20457;-67
2023/06/08 03:57:33;;;;;;;10.37;7.50;;;15.80;99.90;;;;;;5052007;28;20406;-67
2023/06/08 03:59:59;;;;;;;9.67;8.67;;;15.80;99.90;;;;;;5052042;28;20463;-67
2023/06/08 04:02:25;;;;;;;15.40;8.30;;;15.80;99.90;;;;;;5051137;28;20261;-67
2023/06/08 04:04:53;;;;;;;8.17;7.30;;;15.90;99.90;;;;;;5051929;28;20229;-67
2023/06/08 04:07:20;;;;;;;10.60;7.87;;;15.90;99.90;;;;;;5051991;28;20174;-67
2023/06/08 04:09:46;;;;;;;8.70;7.87;;;16.00;99.90;;;;;;5051769;28;20416;-68
2023/06/08 04:12:12;;;;;;;9.13;7.27;;;16.00;99.90;;;;;;5051465;28;20448;-68
2023/06/08 04:14:37;;;;;;;8.40;7.50;;;16.00;99.90;;;;;;5051783;28;20870;-68
2023/06/08 04:17:03;;;;;;;10.20;7.13;;;16.10;99.90;;;;;;5051866;28;20194;-68
2023/06/08 04:19:29;;;;;;;10.23;8.30;;;16.10;99.90;;;;;;5051745;28;20706;-68
2023/06/08 04:21:56;;;;;;;8.90;7.30;;;16.20;99.90;;;;;;5051302;28;20186;-68
2023/06/08 04:24:23;;;;;;;9.53;7.87;;;16.20;99.90;;;;;;5051557;28;20167;-68
2023/06/08 04:26:49;;;;;;;11.87;8.00;;;16.30;99.90;;;;;;5051729;28;20448;-68
2023/06/08 04:29:14;;;;;;;9.20;6.60;;;16.40;99.90;;;;;;5051678;28;20452;-67
2023/06/08 04:31:40;;;;;;;11.47;7.70;;;16.40;99.90;;;;;;5051046;28;20467;-67
2023/06/08 04:34:06;;;;;;;9.83;8.30;;;16.50;99.90;;;;;;5051551;28;20243;-67
2023/06/08 04:36:31;;;;;;;8.00;7.17;;;16.60;99.90;;;;;;5055009;28;20619;-67
2023/06/08 04:38:57;;;;;;;8.70;7.70;;;16.70;99.90;;;;;;5055735;28;20178;-68
2023/06/08 04:41:25;;;;;;;10.20;9.07;;;16.70;99.90;;;;;;5055433;28;20745;-68
2023/06/08 04:43:52;;;;;;;9.53;7.20;;;16.80;99.90;;;;;;5055681;28;20171;-67
2023/06/08 04:46:17;;;;;;;8.10;7.30;;;16.90;99.90;;;;;;5055522;28;20420;-68
2023/06/08 04:48:43;;;;;;;9.00;7.77;;;17.00;99.90;;;;;;5054947;28;20878;-68
2023/06/08 04:51:09;;;;;;;13.63;7.13;;;17.00;99.90;;;;;;5053494;28;20170;-68
2023/06/08 04:53:35;;;;;;;10.80;6.77;;;17.10;99.90;;;;;;5054130;28;20201;-68
2023/06/08 04:56:02;;;;;;;15.73;8.00;;;17.20;99.90;;;;;;5055304;28;20430;-68
2023/06/08 04:58:29;;;;;;;9.70;8.43;;;17.30;99.90;;;;;;5055642;28;20454;-68
2023/06/08 05:00:55;;;;;;;6.47;5.97;;;17.40;99.90;;;;;;5054994;28;20402;-68
2023/06/08 05:03:22;;;;;;;10.27;8.13;;;17.50;99.90;;;;;;5055265;28;20508;-68
2023/06/08 05:05:48;;;;;;;9.87;7.43;;;17.60;99.90;;;;;;5055154;28;20397;-68
2023/06/08 05:08:14;;;;;;;9.00;8.10;;;17.60;99.90;;;;;;5053680;28;21001;-68
2023/06/08 05:10:40;;;;;;;8.43;7.53;;;17.80;99.90;;;;;;5054716;28;20913;-68
2023/06/08 05:13:05;;;;;;;9.07;6.93;;;17.80;99.90;;;;;;5054807;28;20532;-68
2023/06/08 05:15:31;;;;;;;9.17;6.37;;;17.90;99.90;;;;;;5055053;28;20171;-68
2023/06/08 05:17:57;;;;;;;9.63;7.83;;;18.00;99.90;;;;;;5054933;28;20163;-68
2023/06/08 05:20:24;;;;;;;8.57;7.40;;;18.20;99.90;;;;;;5054742;28;20524;-68
2023/06/08 05:22:50;;;;;;;10.40;7.43;;;18.30;99.90;;;;;;5054680;28;21019;-68
2023/06/08 05:25:16;;;;;;;7.60;6.83;;;18.40;99.90;;;;;;5054794;28;20455;-68
2023/06/08 05:27:42;;;;;;;9.97;7.00;;;18.50;99.90;;;;;;5054740;28;20167;-68
2023/06/08 05:30:08;;;;;;;8.70;7.80;;;18.70;99.90;;;;;;5054837;28;20401;-68
2023/06/08 05:32:33;;;;;;;11.70;7.03;;;18.80;99.90;;;;;;5054395;28;20190;-69
2023/06/08 05:35:00;;;;;;;8.67;7.80;;;18.90;99.90;;;;;;5054622;28;20452;-68
2023/06/08 05:37:25;;;;;;;9.67;8.07;;;19.00;99.90;;;;;;5054639;28;20170;-68
2023/06/08 05:39:51;;;;;;;13.63;6.77;;;19.20;99.90;;;;;;5054661;28;20406;-68
2023/06/08 05:42:17;;;;;;;11.57;7.30;;;19.30;99.90;;;;;;5054119;28;20233;-68
2023/06/08 05:44:42;;;;;;;8.77;7.83;;;19.40;99.90;;;;;;5054729;28;20529;-68
2023/06/08 05:47:08;;;;;;;9.43;6.70;;;19.50;99.90;;;;;;5053859;28;20275;-68
2023/06/08 05:49:33;;;;;;;9.10;7.60;;;19.70;99.90;;;;;;5054409;28;20541;-68
2023/06/08 05:51:59;;;;;;;9.30;7.27;;;19.90;99.90;;;;;;5053766;28;20615;-69
2023/06/08 05:54:24;;;;;;;9.80;7.70;;;20.10;99.90;;;;;;5054156;28;20221;-69
2023/06/08 05:56:50;;;;;;;10.90;7.03;;;20.40;99.90;;;;;;5054176;28;20175;-66
2023/06/08 05:59:16;;;;;;;8.97;7.60;;;20.60;99.90;;;;;;5054124;28;20246;-67
2023/06/08 06:01:42;;;;;;;12.57;6.57;;;21.00;99.90;;;;;;5053542;28;20222;-67
2023/06/08 06:04:08;;;;;;;10.57;6.70;;;21.50;99.90;;;;;;5054051;28;20249;-67
2023/06/08 06:06:35;;;;;;;13.93;9.60;;;22.20;99.90;;;;;;5054015;28;20839;-67
2023/06/08 06:09:01;;;;;;;11.70;9.13;;;23.00;99.90;;;;;;5053987;28;20552;-67
2023/06/08 06:11:26;;;;;;;7.90;6.13;;;23.80;99.90;;;;;;5053671;28;20779;-68
2023/06/08 06:13:52;;;;;;;10.90;7.27;;;24.60;99.90;;;;;;5053750;28;20460;-68
2023/06/08 06:16:18;;;;;;;6.37;5.60;;;25.30;99.90;;;;;;5053880;28;20263;-68
2023/06/08 06:18:46;;;;;;;8.93;5.97;;;26.00;99.90;;;;;;5053805;28;20167;-67
2023/06/08 06:21:12;;;;;;;9.07;5.50;;;26.80;99.90;;;;;;5053302;28;20763;-68
2023/06/08 06:23:38;;;;;;;6.17;5.60;;;27.40;99.90;;;;;;5053533;28;20789;-68
2023/06/08 06:26:04;;;;;;;5.43;4.93;;;28.10;99.90;;;;;;5053695;28;20417;-68
2023/06/08 06:28:29;;;;;;;5.67;5.00;;;28.80;99.90;;;;;;5053530;28;20186;-68
2023/06/08 06:30:55;;;;;;;5.50;5.00;;;29.40;99.90;;;;;;5053316;28;20418;-68
2023/06/08 06:33:20;;;;;;;7.37;5.03;;;30.00;97.60;;;;;;5053406;28;20253;-68
2023/06/08 06:35:46;;;;;;;5.00;4.10;;;30.60;92.90;;;;;;5053478;28;20179;-68
2023/06/08 06:38:11;;;;;;;5.83;5.30;;;31.10;87.90;;;;;;5053463;28;20190;-68
2023/06/08 06:40:37;;;;;;;4.67;4.27;;;31.60;81.70;;;;;;5053176;28;20663;-69
2023/06/08 06:43:02;;;;;;;5.73;5.07;;;32.10;74.30;;;;;;5053250;28;20183;-68
2023/06/08 06:45:28;;;;;;;7.60;5.30;;;32.50;69.90;;;;;;5053301;28;20167;-68
2023/06/08 06:47:53;;;;;;;4.70;4.30;;;32.90;64.80;;;;;;5053293;28;20168;-68
2023/06/08 06:50:19;;;;;;;11.67;6.07;;;33.30;61.00;;;;;;5051784;28;20193;-69
2023/06/08 06:52:44;;;;;;;5.43;4.90;;;33.70;58.50;;;;;;5052909;28;20229;-69
2023/06/08 06:55:10;;;;;;;5.10;4.70;;;34.20;56.60;;;;;;5053046;28;20191;-69
2023/06/08 06:57:37;;;;;;;5.57;4.97;;;34.60;55.20;;;;;;5052356;28;20178;-68
2023/06/08 07:00:08;;;;;;;5.00;4.60;;;35.00;53.20;;;;;;5052951;28;20188;-69
2023/06/08 07:02:33;;;;;;;4.73;4.13;;;35.30;50.90;;;;;;5052635;28;20470;-69
2023/06/08 07:05:02;;;;;;;5.93;4.50;;;35.70;49.90;;;;;;5052629;28;20409;-69
2023/06/08 07:07:28;;;;;;;4.57;4.17;;;36.00;49.10;;;;;;5052957;28;20197;-68
2023/06/08 07:09:53;;;;;;;5.10;4.60;;;36.40;48.20;;;;;;5052854;28;20440;-69
2023/06/08 07:12:19;;;;;;;5.40;5.00;;;36.90;47.00;;;;;;5052290;28;20191;-69
2023/06/08 07:14:45;;;;;;;5.17;4.77;;;37.40;45.80;;;;;;5052628;28;20194;-69
2023/06/08 07:17:11;;;;;;;5.13;4.63;;;37.90;44.70;;;;;;5052687;28;20171;-69
2023/06/08 07:19:39;;;;;;;4.80;4.30;;;38.40;43.60;;;;;;5052539;28;20166;-69
2023/06/08 07:22:05;;;;;;;6.33;4.80;;;38.80;42.50;;;;;;5052353;28;20425;-69
2023/06/08 07:24:31;;;;;;;4.70;4.30;;;39.30;40.90;;;;;;5051247;28;20405;-70
2023/06/08 07:26:56;;;;;;;4.07;3.80;;;39.80;40.10;;;;;;5051317;28;20399;-69
2023/06/08 07:29:22;;;;;;;6.50;3.93;;;40.30;38.50;;;;;;5052460;28;20162;-69
2023/06/08 07:31:47;;;;;;;5.30;4.87;;;40.80;38.90;;;;;;5051981;28;20183;-69
2023/06/08 07:34:13;;;;;;;4.77;4.37;;;41.30;36.70;;;;;;5052199;28;20217;-69
2023/06/08 07:36:38;;;;;;;5.93;4.60;;;41.90;36.40;;;;;;5052361;28;20611;-70
2023/06/08 07:39:04;;;;;;;4.90;4.50;;;42.40;33.60;;;;;;5052329;28;20162;-69
2023/06/08 07:41:31;;;;;;;4.27;3.90;;;42.90;32.90;;;;;;5051806;28;20596;-70
2023/06/08 07:43:56;;;;;;;6.27;5.47;;;43.70;32.70;;;;;;5052270;28;20178;-70
2023/06/08 07:46:22;;;;;;;4.13;3.83;;;44.30;32.00;;;;;;5051874;28;20384;-76
2023/06/08 07:48:48;;;;;;;5.90;4.67;;;44.80;31.20;;;;;;5052063;28;20167;-75
2023/06/08 07:51:14;;;;;;;5.07;4.67;;;45.00;30.30;;;;;;5051781;28;20410;-75
2023/06/08 07:53:40;;;;;;;3.93;3.57;;;45.10;29.70;;;;;;5052001;28;20214;-77
2023/06/08 07:56:06;;;;;;;4.07;3.77;;;45.20;29.40;;;;;;5052158;28;20379;-77
2023/06/08 07:58:32;;;;;;;4.73;4.03;;;45.20;28.80;;;;;;5052039;28;20252;-77
2023/06/08 08:00:59;;;;;;;4.37;4.10;;;45.20;28.60;;;;;;5051760;28;20533;-76
2023/06/08 08:03:24;;;;;;;5.43;4.90;;;45.10;28.60;;;;;;5050444;28;20415;-76
2023/06/08 08:05:50;;;;;;;4.90;4.50;;;45.10;28.30;;;;;;5052009;28;20402;-76
2023/06/08 08:08:16;;;;;;;5.80;4.23;;;45.20;28.20;;;;;;5050575;28;20285;-77
2023/06/08 08:10:42;;;;;;;4.90;4.60;;;45.20;28.00;;;;;;5051422;28;20422;-76
2023/06/08 08:13:08;;;;;;;7.60;4.97;;;45.40;28.40;;;;;;5051566;28;20840;-76
2023/06/08 08:15:34;;;;;;;4.90;4.50;;;45.40;27.70;;;;;;5051859;28;20643;-77
2023/06/08 08:18:00;;;;;;;5.57;4.80;;;45.60;27.70;;;;;;5051764;28;20484;-77
2023/06/08 08:20:25;;;;;;;5.20;4.90;;;45.80;27.70;;;;;;5051521;28;20915;-76
2023/06/08 08:22:51;;;;;;;6.73;5.10;;;46.00;27.10;;;;;;5050472;28;20201;-76
2023/06/08 08:25:17;;;;;;;4.90;4.53;;;46.20;27.20;;;;;;5051783;28;20173;-76
2023/06/08 08:27:42;;;;;;;5.20;4.90;;;46.30;27.00;;;;;;5051899;28;20171;-75
2023/06/08 08:30:08;;;;;;;4.20;3.90;;;46.60;26.60;;;;;;5051794;28;20201;-77
2023/06/08 08:32:34;;;;;;;4.97;4.60;;;46.90;26.70;;;;;;5051308;28;20694;-77
2023/06/08 08:35:00;;;;;;;5.10;4.60;;;47.20;26.70;;;;;;5051676;28;20456;-77
2023/06/08 08:37:25;;;;;;;4.30;4.10;;;47.60;26.60;;;;;;5051674;28;20588;-77
2023/06/08 08:39:52;;;;;;;4.77;4.37;;;47.90;25.60;;;;;;5051657;28;20488;-76
2023/06/08 08:42:27;;;;;;;5.20;4.80;;;48.00;25.30;;;;;;5051268;28;20175;-77
2023/06/08 08:44:54;;;;;;;4.57;4.23;;;48.10;24.90;;;;;;5051570;28;20405;-77
2023/06/08 08:47:23;;;;;;;4.77;4.43;;;48.10;25.00;;;;;;5051360;28;20375;-77
2023/06/08 08:50:04;;;;;;;4.60;4.30;;;48.20;25.20;;;;;;5051551;28;20376;-77
2023/06/08 08:52:37;;;;;;;4.27;3.97;;;48.40;25.30;;;;;;5050981;28;20388;-76
2023/06/08 08:55:04;;;;;;;5.07;4.67;;;48.60;24.80;;;;;;5050099;28;20485;-76
2023/06/08 08:57:32;;;;;;;4.40;4.10;;;48.70;24.70;;;;;;5051152;28;20426;-76
2023/06/08 08:59:58;;;;;;;5.30;4.90;;;48.80;24.50;;;;;;5050104;28;20376;-76
2023/06/08 09:02:24;;;;;;;5.53;5.20;;;48.70;24.80;;;;;;5050866;28;20413;-76
2023/06/08 09:04:52;;;;;;;4.43;4.13;;;49.00;24.40;;;;;;5051404;28;20376;-76
2023/06/08 09:07:19;;;;;;;5.27;4.87;;;49.30;24.30;;;;;;5051281;28;20380;-76
2023/06/08 09:10:19;;;;;;;5.17;4.87;;;49.50;24.20;;;;;;5051372;28;20380;-76
2023/06/08 09:12:49;;;;;;;5.53;5.03;;;49.90;24.60;;;;;;5046207;28;20957;-76
2023/06/08 09:15:28;;;;;;;5.80;5.40;;;50.20;24.20;;;;;;5050084;28;20439;-76
2023/06/08 09:17:55;;;;;;;5.70;5.10;;;50.50;24.00;;;;;;5051230;28;20371;-76
2023/06/08 09:20:32;;;;;;;4.93;4.63;;;50.90;24.00;;;;;;5051053;28;20438;-76
2023/06/08 09:22:59;;;;;;;5.10;4.80;;;51.20;23.60;;;;;;5054804;28;20524;-76
2023/06/08 09:25:36;;;;;;;5.47;4.97;;;51.30;23.10;;;;;;5054738;28;20510;-76
2023/06/08 09:28:26;;;;;;;5.60;5.23;;;51.40;23.10;;;;;;5054806;28;20400;-76
2023/06/08 09:30:55;;;;;;;4.60;4.30;;;51.70;23.10;;;;;;5054568;28;20378;-77
2023/06/08 09:33:25;;;;;;;5.53;5.23;;;51.50;22.70;;;;;;5054611;28;20773;-77
2023/06/08 09:36:04;;;;;;;5.27;4.87;;;50.10;22.70;;;;;;5054750;28;20380;-76
2023/06/08 09:38:32;;;;;;;5.40;5.00;;;48.90;23.50;;;;;;5054570;28;20401;-76
2023/06/08 09:41:20;;;;;;;4.97;4.67;;;48.80;23.80;;;;;;5054305;28;20987;-75
2023/06/08 09:43:48;;;;;;;5.07;4.77;;;49.40;24.00;;;;;;5054498;28;20427;-75
2023/06/08 09:46:45;;;;;;;5.37;5.00;;;50.10;24.00;;;;;;5054433;28;20372;-75
2023/06/08 09:49:13;;;;;;;5.93;5.53;;;51.00;23.50;;;;;;5054357;28;20425;-76
2023/06/08 09:51:48;;;;;;;5.60;5.10;;;51.70;22.60;;;;;;5053926;28;20420;-76
2023/06/08 09:54:18;;;;;;;6.23;5.83;;;52.10;22.60;;;;;;5054381;28;20400;-77
2023/06/08 09:56:47;;;;;;;5.67;5.37;;;52.40;22.30;;;;;;5054475;28;20431;-76
2023/06/08 09:59:16;;;;;;;5.53;5.13;;;52.90;22.80;;;;;;5054197;28;20496;-75
2023/06/08 10:01:54;;;;;;;5.50;5.10;;;53.50;22.90;;;;;;5053803;28;20527;-76
2023/06/08 10:04:23;;;;;;;5.87;5.30;;;53.90;22.20;;;;;;5054016;28;20441;-75
2023/06/08 10:07:00;;;;;;;6.17;5.70;;;54.20;21.90;;;;;;5054045;28;20405;-76
2023/06/08 10:09:28;;;;;;;6.00;5.60;;;54.30;21.50;;;;;;5054140;28;20451;-76
2023/06/08 10:11:55;;;;;;;5.67;5.30;;;54.40;21.50;;;;;;5053657;28;20451;-75
2023/06/08 10:14:23;;;;;;;5.07;4.77;;;53.50;21.20;;;;;;5053816;28;20432;-76
2023/06/08 10:16:49;;;;;;;6.07;5.57;;;52.00;21.60;;;;;;5053883;28;20391;-76
2023/06/08 10:19:17;;;;;;;6.97;6.37;;;51.10;22.50;;;;;;5052477;28;20413;-76
2023/06/08 10:21:44;;;;;;;5.70;5.40;;;50.90;22.90;;;;;;5053452;28;20261;-76
2023/06/08 10:24:11;;;;;;;5.27;4.97;;;50.50;22.70;;;;;;5053381;28;20423;-76
2023/06/08 10:26:37;;;;;;;5.27;4.97;;;50.50;22.50;;;;;;5053647;28;20508;-76
2023/06/08 10:29:08;;;;;;;6.70;6.20;;;49.50;22.60;;;;;;5053648;28;20761;-75
2023/06/08 10:31:37;;;;;;;5.57;5.17;;;47.80;23.20;;;;;;5051787;28;20190;-75
2023/06/08 10:34:12;;;;;;;5.93;5.30;;;46.20;24.10;;;;;;5053551;28;20384;-75
2023/06/08 10:36:42;;;;;;;5.80;5.23;;;44.30;24.80;;;;;;5052411;28;20386;-76
2023/06/08 10:39:12;;;;;;;5.77;5.33;;;42.80;25.30;;;;;;5053875;28;20880;-74
2023/06/08 10:41:54;;;;;;;5.87;5.47;;;41.40;26.70;;;;;;5053133;28;20457;-74
2023/06/08 10:44:34;;;;;;;6.03;5.63;;;40.50;27.50;;;;;;5051829;28;20448;-73
2023/06/08 10:47:11;;;;;;;5.27;4.87;;;39.40;28.00;;;;;;5053472;28;20397;-75
2023/06/08 10:49:39;;;;;;;6.20;5.60;;;38.70;29.40;;;;;;5053232;28;20401;-73
2023/06/08 10:52:07;;;;;;;5.70;5.30;;;38.60;30.00;;;;;;5052798;28;20510;-75
2023/06/08 10:54:46;;;;;;;5.93;5.53;;;38.30;30.00;;;;;;5053204;28;20970;-74
2023/06/08 10:57:41;;;;;;;6.10;5.60;;;37.90;30.40;;;;;;5053279;28;20902;-74
2023/06/08 11:00:28;;;;;;;5.70;5.20;;;38.10;31.80;;;;;;5053101;28;20405;-75
2023/06/08 11:03:01;;;;;;;5.50;5.00;;;38.90;32.40;;;;;;5053010;28;20492;-76
2023/06/08 11:05:30;;;;;;;5.00;4.60;;;41.40;30.00;;;;;;5052946;28;20535;-75
2023/06/08 11:07:56;;;;;;;5.70;5.30;;;44.10;29.30;;;;;;5052850;28;20891;-76
2023/06/08 11:10:23;;;;;;;7.23;5.17;;;46.40;26.50;;;;;;5052722;28;20376;-76
2023/06/08 11:12:49;;;;;;;5.73;5.33;;;48.20;25.70;;;;;;5052439;28;20187;-76
2023/06/08 11:15:14;;;;;;;5.50;5.10;;;48.50;24.30;;;;;;5051211;28;20475;-76
2023/06/08 11:17:43;;;;;;;6.07;5.57;;;47.30;23.80;;;;;;5052718;28;20163;-77
2023/06/08 11:20:10;;;;;;;5.30;4.90;;;47.50;24.70;;;;;;5052933;28;20201;-76
2023/06/08 11:22:41;;;;;;;5.83;5.20;;;48.90;24.40;;;;;;5052330;28;20411;-75
2023/06/08 11:25:08;;;;;;;5.30;4.97;;;50.50;23.10;;;;;;5052516;28;20490;-76
2023/06/08 11:27:43;;;;;;;6.37;5.93;;;52.10;22.90;;;;;;5052252;28;20425;-76
2023/06/08 11:30:15;;;;;;;4.90;4.60;;;53.30;22.40;;;;;;5052486;28;20397;-74
2023/06/08 11:32:43;;;;;;;5.60;5.17;;;53.30;21.40;;;;;;5052171;28;20446;-77
2023/06/08 11:35:09;;;;;;;5.10;4.80;;;51.30;21.40;;;;;;5051117;28;20437;-75
2023/06/08 11:37:35;;;;;;;5.60;5.27;;;49.20;22.30;;;;;;5052404;28;20434;-76
2023/06/08 11:40:07;;;;;;;5.40;5.00;;;47.20;23.20;;;;;;5050660;28;20471;-76
2023/06/08 11:42:36;;;;;;;5.10;4.80;;;45.30;24.20;;;;;;5051814;28;20458;-76
2023/06/08 11:45:03;;;;;;;5.20;4.90;;;43.70;25.50;;;;;;5051696;28;20821;-75
2023/06/08 11:47:30;;;;;;;5.60;5.20;;;42.80;26.60;;;;;;5052154;28;20426;-76
2023/06/08 11:49:59;;;;;;;5.57;5.17;;;42.10;26.50;;;;;;5052060;28;20372;-75
2023/06/08 11:52:25;;;;;;;5.90;5.40;;;41.30;26.90;;;;;;5051818;28;20392;-75
2023/06/08 11:54:52;;;;;;;11.53;6.10;;;40.40;27.90;;;;;;5052211;28;20406;-75
2023/06/08 11:57:19;;;;;;;7.23;6.53;;;39.60;28.70;;;;;;5052196;28;20409;-75
2023/06/08 11:59:45;;;;;;;5.33;4.97;;;40.70;30.00;;;;;;5050763;28;20440;-75
2023/06/08 12:02:11;;;;;;;5.20;4.90;;;43.20;29.30;;;;;;5051687;28;20445;-76
2023/06/08 12:04:37;;;;;;;6.70;5.20;;;45.10;27.60;;;;;;5050828;28;20998;-76
2023/06/08 12:07:10;;;;;;;5.60;5.20;;;46.90;26.50;;;;;;5051828;28;20202;-76
2023/06/08 12:09:37;;;;;;;5.30;5.00;;;48.90;25.20;;;;;;5052038;28;20663;-76
2023/06/08 12:12:10;;;;;;;5.57;5.17;;;50.30;24.40;;;;;;5051511;28;20427;-76
2023/06/08 12:14:36;;;;;;;6.27;5.87;;;51.30;23.20;;;;;;5051832;28;20407;-77
2023/06/08 12:17:05;;;;;;;5.40;4.90;;;51.40;22.20;;;;;;5051867;28;20469;-76
2023/06/08 12:19:31;;;;;;;5.97;5.43;;;50.10;21.70;;;;;;5051876;28;20163;-76
2023/06/08 12:21:57;;;;;;;6.97;6.20;;;49.90;22.20;;;;;;5051281;28;20425;-75
2023/06/08 12:24:22;;;;;;;5.83;5.33;;;48.80;22.60;;;;;;5051732;28;20438;-76
2023/06/08 12:26:48;;;;;;;5.60;5.20;;;47.10;22.80;;;;;;5051665;28;20632;-76
2023/06/08 12:29:15;;;;;;;6.37;5.97;;;45.70;23.70;;;;;;5052096;28;20216;-76
2023/06/08 12:31:40;;;;;;;7.10;6.50;;;45.40;24.80;;;;;;5051335;28;20175;-74
2023/06/08 12:34:06;;;;;;;5.97;5.47;;;45.90;25.10;;;;;;5051681;28;20376;-74
2023/06/08 12:36:31;;;;;;;6.27;5.73;;;45.70;25.20;;;;;;5050445;28;20629;-75
2023/06/08 12:38:57;;;;;;;6.30;5.70;;;44.90;25.60;;;;;;5051585;28;20584;-76
2023/06/08 12:41:24;;;;;;;6.67;5.40;;;43.90;25.80;;;;;;5051233;28;20647;-75
2023/06/08 12:43:50;;;;;;;6.80;6.20;;;42.80;26.50;;;;;;5051405;28;20252;-75
2023/06/08 12:46:18;;;;;;;6.30;5.70;;;42.10;26.90;;;;;;5051543;28;20809;-75
2023/06/08 12:48:47;;;;;;;5.77;5.37;;;41.00;27.50;;;;;;5051256;28;20388;-75
2023/06/08 12:51:14;;;;;;;6.33;5.90;;;39.90;28.70;;;;;;5051167;28;20448;-76